Time;durP1;ratioP1;P1;durP2;ratioP2;P2;SDS_P1;SDS_P2;PMS_P1;PMS_P2;Temp;Humidity;BMP_temperature;BMP_pressure;BME280_temperature;BME280_humidity;BME280_pressure;Samples;Min_cycle;Max_cycle;Signal;HPM_P1;HPM_P2
2022/12/08 00:01:44;;;;;;;6.75;5.00;;;;;;;-0.07;100.00;98086.25;5016233;28;20132;-61
2022/12/08 00:04:10;;;;;;;8.18;5.97;;;;;;;-0.11;100.00;98077.25;5016543;28;20050;-62
2022/12/08 00:09:25;;;;;;;6.85;4.80;;;;;;;-0.17;100.00;98082.00;5016234;28;20060;-61
2022/12/08 00:11:55;;;;;;;7.63;5.45;;;;;;;-0.08;100.00;98088.19;5016132;28;20057;-61
2022/12/08 00:14:24;;;;;;;7.85;5.53;;;;;;;-0.20;100.00;98090.75;5016250;28;20140;-62
2022/12/08 00:16:51;;;;;;;6.78;5.05;;;;;;;-0.18;100.00;98080.44;5016253;28;20097;-61
2022/12/08 00:19:17;;;;;;;7.95;5.63;;;;;;;-0.09;100.00;98080.44;5016120;28;20049;-61
2022/12/08 00:21:43;;;;;;;8.93;5.53;;;;;;;-0.16;100.00;98088.22;5016254;28;20225;-61
2022/12/08 00:24:09;;;;;;;7.55;5.50;;;;;;;-0.17;100.00;98087.41;5016037;28;20050;-61
2022/12/08 00:26:36;;;;;;;9.95;6.18;;;;;;;-0.07;100.00;98086.25;5016326;28;20116;-62
2022/12/08 00:29:03;;;;;;;9.02;6.55;;;;;;;-0.17;100.00;98084.69;5015907;28;20304;-62
2022/12/08 00:31:30;;;;;;;7.80;5.45;;;;;;;-0.21;100.00;98085.69;5016269;28;20077;-62
2022/12/08 00:33:57;;;;;;;8.23;5.65;;;;;;;-0.16;100.00;98088.22;5015868;28;20050;-60
2022/12/08 00:36:23;;;;;;;7.13;5.22;;;;;;;-0.23;100.00;98088.69;5016003;28;20144;-61
2022/12/08 00:38:50;;;;;;;6.75;5.63;;;;;;;-0.25;100.00;98078.22;5016075;28;20132;-61
2022/12/08 00:41:18;;;;;;;8.52;5.70;;;;;;;-0.19;100.00;98072.69;5015776;28;20115;-60
2022/12/08 00:43:44;;;;;;;8.57;6.63;;;;;;;-0.15;100.00;98070.94;5015837;28;20136;-61
2022/12/08 00:46:11;;;;;;;8.93;6.90;;;;;;;0.04;100.00;98055.19;5015593;28;20451;-60
2022/12/08 00:48:38;;;;;;;8.27;6.05;;;;;;;-0.16;100.00;98066.66;5016245;28;20117;-60
2022/12/08 00:51:04;;;;;;;9.93;6.88;;;;;;;-0.05;100.00;98068.69;5015633;28;20112;-61
2022/12/08 00:53:30;;;;;;;9.48;6.80;;;;;;;-0.01;100.00;98075.00;5015920;28;20416;-61
2022/12/08 00:55:57;;;;;;;9.95;6.72;;;;;;;-0.04;100.00;98078.34;5015740;28;20208;-60
2022/12/08 00:58:23;;;;;;;9.98;5.63;;;;;;;-0.17;100.00;98086.59;5017477;28;20450;-62
2022/12/08 01:00:49;;;;;;;8.30;5.68;;;;;;;-0.19;100.00;98075.38;5018893;28;20111;-60
2022/12/08 01:03:15;;;;;;;9.38;6.35;;;;;;;-0.20;100.00;98073.78;5019288;28;20060;-61
2022/12/08 01:05:43;;;;;;;11.00;6.07;;;;;;;-0.20;100.00;98079.97;5018799;28;20180;-60
2022/12/08 01:08:09;;;;;;;7.88;5.95;;;;;;;-0.09;100.00;98080.44;5018624;28;20399;-60
2022/12/08 01:10:36;;;;;;;11.02;7.55;;;;;;;0.02;100.00;98064.69;5018787;28;20062;-60
2022/12/08 01:13:02;;;;;;;11.80;7.18;;;;;;;-0.10;100.00;98068.03;5018651;28;20145;-61
2022/12/08 01:15:29;;;;;;;11.55;7.05;;;;;;;-0.07;100.00;98070.09;5018537;28;20437;-62
2022/12/08 01:17:55;;;;;;;10.93;7.20;;;;;;;-0.15;100.00;98079.78;5018546;28;20419;-60
2022/12/08 01:20:21;;;;;;;12.32;8.05;;;;;;;-0.16;100.00;98077.44;5018953;28;20049;-62
2022/12/08 01:22:48;;;;;;;11.48;7.05;;;;;;;-0.14;100.00;98072.50;5018494;28;20081;-61
2022/12/08 01:25:14;;;;;;;10.30;7.22;;;;;;;-0.16;100.00;98072.06;5018941;28;20484;-61
2022/12/08 01:27:41;;;;;;;11.40;6.97;;;;;;;-0.22;100.00;98071.41;5018447;28;20342;-60
2022/12/08 01:30:08;;;;;;;13.10;8.07;;;;;;;0.06;100.00;98063.72;5018909;28;20111;-62
2022/12/08 01:32:35;;;;;;;12.77;8.00;;;;;;;-0.16;100.00;98080.13;5018260;28;20072;-59
2022/12/08 01:35:01;;;;;;;12.32;8.57;;;;;;;-0.13;100.00;98071.41;5018849;28;20141;-62
2022/12/08 01:37:28;;;;;;;15.38;7.63;;;;;;;-0.20;100.00;98084.56;5018362;28;20056;-60
2022/12/08 01:39:55;;;;;;;16.17;9.85;;;;;;;-0.14;100.00;98085.97;5018256;28;20141;-60
2022/12/08 01:42:23;;;;;;;14.88;10.43;;;;;;;-0.12;100.00;98086.47;5018590;28;20081;-61
2022/12/08 01:44:55;;;;;;;13.82;8.48;;;;;;;-0.13;100.00;98103.75;5018200;28;20050;-61
2022/12/08 01:47:24;;;;;;;15.57;9.75;;;;;;;-0.13;100.00;98109.91;5018376;28;20407;-60
2022/12/08 01:49:50;;;;;;;16.77;10.75;;;;;;;-0.14;100.00;98121.78;5018122;28;20395;-60
2022/12/08 01:52:22;;;;;;;18.63;11.25;;;;;;;0.06;100.00;98130.31;5018827;28;20045;-61
2022/12/08 01:54:52;;;;;;;18.38;10.98;;;;;;;-0.04;100.00;98140.31;5018277;28;20137;-62
2022/12/08 01:57:25;;;;;;;19.30;11.88;;;;;;;-0.07;100.00;98156.31;5018655;28;20087;-62
2022/12/08 01:59:56;;;;;;;19.73;11.57;;;;;;;0.10;100.00;98168.97;5018282;28;20049;-61
2022/12/08 02:02:25;;;;;;;21.33;12.88;;;;;;;0.06;100.00;98173.41;5018130;28;20062;-60
2022/12/08 02:04:51;;;;;;;19.38;11.23;;;;;;;-0.11;100.00;98183.09;5018250;28;20398;-61
2022/12/08 02:07:18;;;;;;;17.70;11.13;;;;;;;-0.14;100.00;98178.34;5017922;28;20439;-61
2022/12/08 02:09:45;;;;;;;22.55;12.95;;;;;;;0.05;100.00;98188.00;5017704;28;20081;-62
2022/12/08 02:12:12;;;;;;;19.98;11.43;;;;;;;0.21;100.00;98187.19;5017902;28;20170;-61
2022/12/08 02:14:39;;;;;;;21.73;12.13;;;;;;;-0.08;100.00;98198.63;5018193;28;20382;-61
2022/12/08 02:17:14;;;;;;;22.15;11.85;;;;;;;-0.20;100.00;98217.38;5017660;28;20150;-60
2022/12/08 02:20:10;;;;;;;18.42;11.35;;;;;;;-0.11;100.00;98214.66;5018404;28;20084;-60
2022/12/08 02:22:47;;;;;;;19.35;10.48;;;;;;;-0.16;100.00;98223.69;5017722;28;20050;-62
2022/12/08 02:25:22;;;;;;;17.55;10.05;;;;;;;-0.24;100.00;98233.34;5017586;28;20081;-60
2022/12/08 02:28:01;;;;;;;19.95;11.70;;;;;;;-0.17;100.00;98229.38;5017865;28;20164;-63
2022/12/08 02:30:37;;;;;;;16.60;10.52;;;;;;;-0.20;100.00;98235.41;5017558;28;20133;-62
2022/12/08 02:33:48;;;;;;;18.40;11.73;;;;;;;-0.29;100.00;98238.91;5018162;28;20049;-62
2022/12/08 02:36:23;;;;;;;19.23;11.30;;;;;;;-0.32;100.00;98228.75;5017587;28;20054;-61
2022/12/08 02:38:58;;;;;;;19.13;11.13;;;;;;;-0.21;100.00;98229.22;5017581;28;20141;-60
2022/12/08 02:41:36;;;;;;;21.77;11.95;;;;;;;-0.16;100.00;98221.00;5017769;28;20292;-60
2022/12/08 02:44:11;;;;;;;19.10;11.48;;;;;;;-0.20;100.00;98214.66;5017336;28;20062;-61
2022/12/08 02:46:51;;;;;;;17.58;9.57;;;;;;;-0.30;100.00;98221.16;5017687;28;20058;-61
2022/12/08 02:49:18;;;;;;;18.92;10.77;;;;;;;-0.31;100.00;98222.25;5017202;28;20050;-62
2022/12/08 02:51:44;;;;;;;21.73;10.80;;;;;;;-0.05;100.00;98218.78;5017378;28;20068;-61
2022/12/08 02:54:11;;;;;;;22.45;12.30;;;;;;;0.01;100.00;98230.19;5017466;28;20062;-61
2022/12/08 02:56:57;;;;;;;20.80;12.25;;;;;;;-0.01;100.00;98243.97;5017066;28;20085;-61
2022/12/08 02:59:38;;;;;;;19.85;11.57;;;;;;;-0.14;100.00;98244.91;5017476;28;20337;-61
2022/12/08 03:02:22;;;;;;;25.13;12.82;;;;;;;-0.16;100.00;98253.31;5016874;28;20058;-62
2022/12/08 03:04:58;;;;;;;24.03;12.80;;;;;;;-0.05;100.00;98248.41;5017421;28;20153;-61
2022/12/08 03:07:30;;;;;;;17.85;9.95;;;;;;;-0.23;100.00;98247.63;5017147;28;20053;-60
2022/12/08 03:10:03;;;;;;;22.63;11.77;;;;;;;0.09;100.00;98246.34;5016843;28;20089;-61
2022/12/08 03:12:33;;;;;;;25.60;13.43;;;;;;;0.00;100.00;98250.97;5017284;28;20064;-60
2022/12/08 03:15:05;;;;;;;23.05;13.40;;;;;;;-0.02;100.00;98248.56;5016785;28;20049;-60
2022/12/08 03:17:32;;;;;;;22.45;12.55;;;;;;;0.04;100.00;98251.91;5017106;28;20053;-61
2022/12/08 03:20:03;;;;;;;19.00;11.35;;;;;;;-0.14;100.00;98259.16;5016174;28;20050;-60
2022/12/08 03:22:32;;;;;;;20.35;11.48;;;;;;;-0.19;100.00;98263.94;5016442;28;20085;-62
2022/12/08 03:24:58;;;;;;;20.77;13.05;;;;;;;0.06;100.00;98259.66;5016707;28;20391;-62
2022/12/08 03:27:28;;;;;;;24.15;13.40;;;;;;;0.08;100.00;98263.63;5016549;28;20096;-61
2022/12/08 03:29:57;;;;;;;20.38;12.68;;;;;;;-0.10;100.00;98262.84;5016678;28;20444;-61
2022/12/08 03:32:28;;;;;;;22.25;12.35;;;;;;;-0.03;100.00;98254.28;5016493;28;20181;-61
2022/12/08 03:34:57;;;;;;;24.75;13.73;;;;;;;-0.02;100.00;98262.03;5016761;28;20427;-60
2022/12/08 03:37:23;;;;;;;21.60;12.02;;;;;;;-0.12;100.00;98264.25;5016667;28;20374;-61
2022/12/08 03:39:50;;;;;;;26.05;13.30;;;;;;;-0.11;100.00;98268.53;5016786;28;20137;-60
2022/12/08 03:42:17;;;;;;;25.75;14.13;;;;;;;0.12;100.00;98267.25;5016584;28;20375;-62
2022/12/08 03:44:43;;;;;;;18.38;10.63;;;;;;;-0.08;100.00;98260.59;5016889;28;20054;-62
2022/12/08 03:47:09;;;;;;;29.55;13.07;;;;;;;-0.14;100.00;98258.38;5016350;28;20065;-61
2022/12/08 03:49:36;;;;;;;19.77;11.95;;;;;;;-0.09;100.00;98263.63;5016842;28;20046;-62
2022/12/08 03:52:02;;;;;;;22.98;12.10;;;;;;;-0.08;100.00;98263.31;5016513;28;20133;-60
2022/12/08 03:54:29;;;;;;;24.55;13.30;;;;;;;0.04;100.00;98254.59;5016503;28;20053;-61
2022/12/08 03:56:56;;;;;;;22.33;12.88;;;;;;;0.13;100.00;98260.75;5016299;28;20050;-62
2022/12/08 03:59:22;;;;;;;22.70;12.75;;;;;;;0.03;100.00;98269.16;5016473;28;20380;-60
2022/12/08 04:01:48;;;;;;;28.25;14.40;;;;;;;0.02;100.00;98272.19;5016579;28;20050;-62
2022/12/08 04:04:14;;;;;;;29.85;14.57;;;;;;;0.03;100.00;98268.38;5016366;28;20054;-61
2022/12/08 04:06:41;;;;;;;27.83;16.02;;;;;;;0.13;100.00;98265.34;5016485;28;20386;-60
2022/12/08 04:09:07;;;;;;;31.10;18.38;;;;;;;0.05;100.00;98271.56;5016137;28;20101;-62
2022/12/08 04:11:34;;;;;;;21.20;12.95;;;;;;;-0.21;100.00;98268.84;5016531;28;20081;-61
2022/12/08 04:14:01;;;;;;;18.42;11.90;;;;;;;-0.27;100.00;98263.63;5016084;28;20137;-60
2022/12/08 04:16:27;;;;;;;24.00;15.13;;;;;;;-0.18;100.00;98255.53;5016573;28;20050;-61
2022/12/08 04:18:54;;;;;;;21.20;12.55;;;;;;;-0.05;100.00;98269.97;5015922;28;20436;-60
2022/12/08 04:21:21;;;;;;;16.63;10.00;;;;;;;-0.14;100.00;98288.81;5016442;28;20064;-60
2022/12/08 04:23:47;;;;;;;17.02;10.35;;;;;;;-0.19;100.00;98321.31;5016214;28;20187;-61
2022/12/08 04:26:14;;;;;;;16.65;8.95;;;;;;;-0.27;100.00;98325.56;5015845;28;20141;-61
2022/12/08 04:28:41;;;;;;;19.58;9.27;;;;;;;-0.12;100.00;98347.78;5016217;28;20396;-60
2022/12/08 04:31:08;;;;;;;17.45;9.88;;;;;;;-0.20;100.00;98370.91;5015825;28;20056;-62
2022/12/08 04:33:34;;;;;;;12.65;8.35;;;;;;;-0.20;100.00;98397.03;5019367;28;20414;-59
2022/12/08 04:36:01;;;;;;;16.48;9.90;;;;;;;-0.14;100.00;98420.03;5019196;28;20428;-61
2022/12/08 04:38:27;;;;;;;21.52;12.50;;;;;;;-0.20;100.00;98438.25;5019627;28;20068;-60
2022/12/08 04:40:54;;;;;;;20.13;11.90;;;;;;;-0.13;100.00;98445.88;5019142;28;20331;-62
2022/12/08 04:43:20;;;;;;;20.17;12.10;;;;;;;-0.25;100.00;98466.09;5019688;28;20089;-61
2022/12/08 04:45:46;;;;;;;19.67;10.77;;;;;;;-0.37;100.00;98481.25;5018984;28;20473;-61
2022/12/08 04:48:14;;;;;;;18.08;11.32;;;;;;;-0.15;100.00;98499.28;5019310;28;20141;-62
2022/12/08 04:50:41;;;;;;;15.25;9.50;;;;;;;-0.34;100.00;98523.72;5018892;28;20402;-61
2022/12/08 04:53:07;;;;;;;18.42;11.43;;;;;;;-0.20;100.00;98543.31;5019049;28;20062;-60
2022/12/08 04:55:34;;;;;;;19.77;10.85;;;;;;;-0.12;100.00;98557.94;5018890;28;20145;-61
2022/12/08 04:58:00;;;;;;;23.48;10.93;;;;;;;0.10;100.00;98578.63;5018720;28;20144;-61
2022/12/08 05:00:26;;;;;;;19.33;11.73;;;;;;;0.14;100.00;98595.78;5018686;28;20057;-61
2022/12/08 05:02:52;;;;;;;22.88;11.07;;;;;;;0.08;100.00;98623.97;5018401;28;20057;-62
2022/12/08 05:05:19;;;;;;;19.10;9.00;;;;;;;-0.23;100.00;98646.28;5018906;28;20136;-60
2022/12/08 05:07:45;;;;;;;15.73;8.32;;;;;;;-0.25;100.00;98657.34;5018503;28;20196;-60
2022/12/08 05:10:12;;;;;;;14.18;8.88;;;;;;;-0.29;100.00;98682.53;5019048;28;20050;-60
2022/12/08 05:12:38;;;;;;;17.48;9.80;;;;;;;-0.33;100.00;98686.94;5018673;28;20085;-62
2022/12/08 05:15:05;;;;;;;14.45;8.60;;;;;;;-0.08;100.00;98713.28;5019072;28;20127;-60
2022/12/08 05:17:32;;;;;;;17.10;9.27;;;;;;;-0.37;100.00;98715.56;5018363;28;20061;-61
2022/12/08 05:19:58;;;;;;;13.85;8.98;;;;;;;-0.45;100.00;98714.38;5018621;28;20089;-62
2022/12/08 05:22:25;;;;;;;15.00;8.23;;;;;;;-0.39;100.00;98728.56;5018396;28;20050;-60
2022/12/08 05:24:51;;;;;;;16.75;8.80;;;;;;;-0.15;100.00;98720.19;5018530;28;20054;-61
2022/12/08 05:27:18;;;;;;;20.85;10.07;;;;;;;-0.32;100.00;98718.16;5018368;28;20068;-60
2022/12/08 05:29:44;;;;;;;17.23;9.40;;;;;;;-0.54;100.00;98727.75;5018281;28;20136;-61
2022/12/08 05:32:10;;;;;;;17.35;10.55;;;;;;;-0.57;100.00;98733.75;5018525;28;20136;-60
2022/12/08 05:34:38;;;;;;;17.98;9.63;;;;;;;-0.74;100.00;98737.06;5018306;28;20064;-61
2022/12/08 05:37:04;;;;;;;15.57;10.07;;;;;;;-0.78;100.00;98728.00;5018728;28;20316;-60
2022/12/08 05:39:31;;;;;;;24.60;11.23;;;;;;;-0.72;100.00;98739.47;5018147;28;20049;-62
2022/12/08 05:41:58;;;;;;;22.90;10.85;;;;;;;-0.63;100.00;98737.66;5018560;28;20056;-59
2022/12/08 05:44:25;;;;;;;16.58;10.40;;;;;;;-0.66;100.00;98743.66;5017069;28;20054;-65
2022/12/08 05:46:51;;;;;;;24.70;8.57;;;;;;;-0.77;100.00;98751.16;5018245;28;20420;-67
2022/12/08 05:49:18;;;;;;;17.77;9.50;;;;;;;-0.71;100.00;98739.16;5018177;28;20334;-66
2022/12/08 05:51:44;;;;;;;14.90;8.68;;;;;;;-0.73;100.00;98749.44;5018071;28;20068;-65
2022/12/08 05:54:10;;;;;;;14.32;8.32;;;;;;;-0.76;100.00;98760.81;5018111;28;20363;-66
2022/12/08 05:56:37;;;;;;;14.75;7.90;;;;;;;-0.81;100.00;98778.94;5017702;28;20054;-64
2022/12/08 05:59:05;;;;;;;17.13;9.35;;;;;;;-0.33;100.00;98773.94;5018017;28;20122;-65
2022/12/08 06:01:32;;;;;;;15.40;8.98;;;;;;;-0.58;100.00;98775.25;5017748;28;20054;-60
2022/12/08 06:04:00;;;;;;;11.95;6.88;;;;;;;-0.91;100.00;98792.59;5017853;28;20469;-63
2022/12/08 06:06:26;;;;;;;14.88;7.75;;;;;;;-0.99;100.00;98802.97;5017608;28;20054;-64
2022/12/08 06:08:53;;;;;;;12.10;6.95;;;;;;;-0.73;100.00;98803.28;5018000;28;20481;-62
2022/12/08 06:11:21;;;;;;;16.35;7.53;;;;;;;-0.82;100.00;98807.75;5017553;28;20058;-62
2022/12/08 06:13:48;;;;;;;15.85;8.48;;;;;;;-0.97;100.00;98813.41;5018246;28;20077;-58
2022/12/08 06:16:15;;;;;;;15.48;8.25;;;;;;;-1.01;100.00;98817.78;5017604;28;20140;-65
2022/12/08 06:18:41;;;;;;;14.77;8.48;;;;;;;-0.75;100.00;98828.88;5017387;28;20058;-61
2022/12/08 06:21:09;;;;;;;14.68;7.63;;;;;;;-0.90;100.00;98829.16;5017613;28;20148;-63
2022/12/08 06:23:36;;;;;;;14.93;7.20;;;;;;;-0.95;100.00;98835.44;5017513;28;20119;-58
2022/12/08 06:26:04;;;;;;;13.48;7.45;;;;;;;-1.06;100.00;98842.13;5017507;28;20458;-65
2022/12/08 06:28:31;;;;;;;12.23;6.72;;;;;;;-1.07;100.00;98846.69;5017223;28;20116;-64
2022/12/08 06:30:59;;;;;;;11.48;7.03;;;;;;;-1.24;100.00;98836.47;5017053;28;20140;-64
2022/12/08 06:33:25;;;;;;;11.35;7.13;;;;;;;-1.07;100.00;98843.19;5017221;28;20049;-64
2022/12/08 06:35:52;;;;;;;11.35;7.28;;;;;;;-1.08;100.00;98838.91;5017139;28;20049;-65
2022/12/08 06:38:18;;;;;;;12.93;7.32;;;;;;;-0.96;100.00;98841.94;5017161;28;20062;-62
2022/12/08 06:40:53;;;;;;;11.60;6.53;;;;;;;-1.29;100.00;98841.94;5016630;28;20168;-65
2022/12/08 06:43:19;;;;;;;11.95;6.78;;;;;;;-1.22;100.00;98855.03;5017091;28;20049;-61
2022/12/08 06:45:45;;;;;;;13.77;7.93;;;;;;;-1.11;100.00;98856.44;5016792;28;20152;-65
2022/12/08 06:48:12;;;;;;;12.90;7.35;;;;;;;-1.22;100.00;98853.13;5017188;28;20062;-63
2022/12/08 06:50:39;;;;;;;10.90;6.65;;;;;;;-1.27;100.00;98860.47;5017092;28;20052;-60
2022/12/08 06:53:05;;;;;;;16.98;7.57;;;;;;;-1.32;100.00;98874.03;5016909;28;20046;-65
2022/12/08 06:55:32;;;;;;;14.68;7.15;;;;;;;-1.22;100.00;98885.41;5017294;28;20054;-63
2022/12/08 06:57:58;;;;;;;10.95;6.88;;;;;;;-1.30;100.00;98891.47;5017061;28;20062;-61
2022/12/08 07:00:24;;;;;;;13.40;7.35;;;;;;;-1.24;100.00;98886.78;5016748;28;20054;-63
2022/12/08 07:02:51;;;;;;;15.93;7.80;;;;;;;-1.28;100.00;98894.63;5016984;28;20085;-64
2022/12/08 07:05:18;;;;;;;19.40;8.63;;;;;;;-1.08;100.00;98903.47;5017269;28;20141;-62
2022/12/08 07:07:44;;;;;;;12.50;7.07;;;;;;;-1.32;100.00;98909.78;5016992;28;20050;-61
2022/12/08 07:10:10;;;;;;;13.52;7.55;;;;;;;-1.29;100.00;98903.81;5017403;28;20144;-60
2022/12/08 07:12:37;;;;;;;19.10;8.02;;;;;;;-1.17;100.00;98897.16;5016669;28;20103;-65
2022/12/08 07:15:04;;;;;;;9.88;7.03;;;;;;;-1.16;100.00;98909.53;5016717;28;20061;-66
2022/12/08 07:17:30;;;;;;;15.88;7.75;;;;;;;-1.10;100.00;98911.84;5016690;28;20060;-65
2022/12/08 07:19:56;;;;;;;15.25;7.80;;;;;;;-1.15;100.00;98906.53;5016685;28;20145;-62
2022/12/08 07:22:23;;;;;;;11.48;7.55;;;;;;;-1.16;100.00;98923.00;5016566;28;20199;-64
2022/12/08 07:24:49;;;;;;;13.73;7.05;;;;;;;-1.26;100.00;98923.94;5016924;28;20122;-62
2022/12/08 07:27:16;;;;;;;15.32;7.68;;;;;;;-1.03;100.00;98925.72;5016380;28;20054;-63
2022/12/08 07:29:42;;;;;;;13.88;8.05;;;;;;;-0.99;100.00;98925.94;5015997;28;20500;-64
2022/12/08 07:32:08;;;;;;;11.90;6.90;;;;;;;-1.07;100.00;98934.66;5016591;28;20176;-62
2022/12/08 07:34:35;;;;;;;12.30;7.70;;;;;;;-0.86;100.00;98932.47;5016390;28;20104;-66
2022/12/08 07:37:01;;;;;;;16.05;8.55;;;;;;;-0.74;100.00;98928.19;5016837;28;20057;-62
2022/12/08 07:39:28;;;;;;;11.73;7.55;;;;;;;-0.61;100.00;98917.75;5016237;28;20054;-60
2022/12/08 07:41:55;;;;;;;14.10;8.13;;;;;;;-0.50;100.00;98911.06;5016373;28;20057;-65
2022/12/08 07:44:21;;;;;;;12.25;5.80;;;;;;;-1.01;100.00;98904.69;5016392;28;20076;-62
2022/12/08 07:46:47;;;;;;;16.55;7.68;;;;;;;-0.90;100.00;98907.22;5016313;28;20049;-67
2022/12/08 07:49:13;;;;;;;17.20;10.02;;;;;;;-0.85;100.00;98901.75;5016510;28;20335;-63
2022/12/08 07:51:40;;;;;;;20.58;11.45;;;;;;;-0.74;100.00;98912.03;5016139;28;20088;-62
2022/12/08 07:54:10;;;;;;;20.23;11.27;;;;;;;-0.65;100.00;98914.84;5016556;28;20100;-63
2022/12/08 07:56:37;;;;;;;15.60;8.93;;;;;;;-0.76;100.00;98887.31;5016288;28;20081;-65
2022/12/08 07:59:03;;;;;;;14.27;8.15;;;;;;;-0.32;100.00;98895.94;5016348;28;20053;-59
2022/12/08 08:01:31;;;;;;;17.55;9.65;;;;;;;0.08;100.00;98896.19;5016317;28;20315;-67
2022/12/08 08:04:00;;;;;;;15.50;9.00;;;;;;;0.75;100.00;98873.91;5016426;28;20050;-69
2022/12/08 08:06:27;;;;;;;22.27;10.23;;;;;;;0.30;100.00;98783.00;5016303;28;20050;-63
2022/12/08 08:08:54;;;;;;;21.88;11.52;;;;;;;0.30;100.00;98761.44;5018908;28;20423;-63
2022/12/08 08:11:20;;;;;;;29.60;11.95;;;;;;;0.55;100.00;98732.25;5019651;28;20053;-69
2022/12/08 08:13:47;;;;;;;20.52;11.13;;;;;;;0.45;100.00;98671.28;5019423;28;20108;-67
2022/12/08 08:16:13;;;;;;;24.42;13.63;;;;;;;0.43;100.00;98660.81;5019693;28;20160;-62
2022/12/08 08:18:40;;;;;;;25.67;10.82;;;;;;;0.41;100.00;98663.00;5019490;28;20157;-66
2022/12/08 08:21:07;;;;;;;21.73;12.40;;;;;;;0.37;100.00;98663.94;5019533;28;20089;-64
2022/12/08 08:23:33;;;;;;;40.95;13.00;;;;;;;0.11;100.00;98661.09;5019276;28;20046;-65
2022/12/08 08:26:00;;;;;;;19.25;10.95;;;;;;;0.59;100.00;98703.53;5019681;28;20138;-63
2022/12/08 08:28:27;;;;;;;17.80;9.65;;;;;;;0.67;100.00;98659.63;5019282;28;20339;-65
2022/12/08 08:30:54;;;;;;;18.67;10.48;;;;;;;0.77;100.00;98618.88;5019438;28;20050;-66
2022/12/08 08:33:20;;;;;;;18.67;9.18;;;;;;;0.65;100.00;98573.59;5019051;28;20050;-58
2022/12/08 08:35:47;;;;;;;14.00;9.07;;;;;;;0.30;100.00;98524.19;5019042;28;20211;-65
2022/12/08 08:38:13;;;;;;;13.85;8.18;;;;;;;0.45;100.00;98539.91;5018995;28;20120;-66
2022/12/08 08:40:39;;;;;;;19.13;8.18;;;;;;;0.66;100.00;98490.75;5018724;28;20054;-67
2022/12/08 08:43:06;;;;;;;14.35;8.23;;;;;;;0.88;100.00;98425.88;5019377;28;20053;-63
2022/12/08 08:45:33;;;;;;;13.40;7.72;;;;;;;1.09;100.00;98388.19;5018890;28;20419;-64
2022/12/08 08:48:00;;;;;;;16.40;8.05;;;;;;;0.91;100.00;98303.78;5019433;28;20061;-67
2022/12/08 08:50:27;;;;;;;13.02;7.85;;;;;;;0.74;100.00;98263.38;5018981;28;20141;-66
2022/12/08 08:52:53;;;;;;;12.50;7.57;;;;;;;0.77;100.00;98267.31;5019168;28;20199;-68
2022/12/08 08:55:19;;;;;;;19.65;8.32;;;;;;;0.99;100.00;98252.81;5018958;28;20207;-64
2022/12/08 08:57:45;;;;;;;12.15;8.18;;;;;;;0.96;100.00;98215.66;5019208;28;20054;-63
2022/12/08 09:00:13;;;;;;;14.85;8.02;;;;;;;0.91;100.00;98252.53;5019005;28;20140;-66
2022/12/08 09:02:39;;;;;;;14.38;7.95;;;;;;;0.62;100.00;98272.13;5019193;28;20458;-67
2022/12/08 09:05:07;;;;;;;14.57;7.55;;;;;;;0.39;100.00;98301.19;5018878;28;20141;-63
2022/12/08 09:07:34;;;;;;;15.65;7.68;;;;;;;0.64;100.00;98334.63;5018476;28;20049;-63
2022/12/08 09:10:00;;;;;;;18.17;7.70;;;;;;;0.55;100.00;98293.41;5018921;28;20076;-68
2022/12/08 09:12:26;;;;;;;14.60;8.38;;;;;;;0.49;100.00;98299.28;5018525;28;20207;-63
2022/12/08 09:14:52;;;;;;;13.70;7.32;;;;;;;0.60;100.00;98333.69;5018706;28;20054;-68
2022/12/08 09:17:19;;;;;;;16.00;8.00;;;;;;;0.88;100.00;98322.53;5018506;28;20196;-61
2022/12/08 09:19:45;;;;;;;15.93;8.57;;;;;;;0.93;100.00;98306.97;5017684;28;20054;-61
2022/12/08 09:22:13;;;;;;;13.23;8.57;;;;;;;0.71;100.00;98293.69;5018556;28;20454;-68
2022/12/08 09:24:40;;;;;;;16.00;9.10;;;;;;;0.75;100.00;98274.94;5018866;28;20077;-65
2022/12/08 09:27:06;;;;;;;18.13;8.95;;;;;;;1.03;100.00;98272.63;5018199;28;20050;-62
2022/12/08 09:29:32;;;;;;;13.98;8.27;;;;;;;1.10;100.00;98225.13;5018769;28;20141;-66
2022/12/08 09:31:58;;;;;;;14.57;8.40;;;;;;;0.96;100.00;98221.84;5018152;28;20049;-63
2022/12/08 09:34:25;;;;;;;18.30;9.07;;;;;;;0.93;100.00;98227.91;5018841;28;20062;-67
2022/12/08 09:36:51;;;;;;;18.55;10.77;;;;;;;1.38;100.00;98238.16;5018364;28;20473;-58
2022/12/08 09:39:18;;;;;;;22.60;11.00;;;;;;;1.20;100.00;98206.97;5018524;28;20089;-67
2022/12/08 09:41:49;;;;;;;18.30;9.88;;;;;;;1.05;100.00;98211.81;5018434;28;20070;-61
2022/12/08 09:44:37;;;;;;;18.83;9.23;;;;;;;0.74;100.00;98251.78;5018104;28;20057;-61
2022/12/08 09:47:11;;;;;;;20.02;10.65;;;;;;;1.35;100.00;98334.13;5018323;28;20046;-68
2022/12/08 09:49:41;;;;;;;17.15;9.77;;;;;;;0.97;100.00;98301.72;5018209;28;20053;-67
2022/12/08 09:52:19;;;;;;;16.65;9.02;;;;;;;0.69;100.00;98325.56;5018459;28;20103;-62
2022/12/08 09:54:46;;;;;;;15.88;9.00;;;;;;;1.10;100.00;98343.09;5018249;28;20136;-62
2022/12/08 09:57:18;;;;;;;17.45;10.07;;;;;;;1.11;100.00;98315.78;5018078;28;20135;-67
2022/12/08 09:59:48;;;;;;;18.48;9.05;;;;;;;1.18;100.00;98266.69;5018213;28;20056;-67
2022/12/08 10:02:21;;;;;;;9.98;6.18;;;;;;;0.67;100.00;98204.53;5018184;28;20140;-60
2022/12/08 10:04:47;;;;;;;17.90;7.85;;;;;;;0.88;100.00;98209.97;5018069;28;20050;-62
2022/12/08 10:07:17;;;;;;;14.60;8.13;;;;;;;0.91;100.00;98222.84;5017713;28;20474;-67
2022/12/08 10:09:49;;;;;;;16.17;9.02;;;;;;;1.21;100.00;98168.06;5018032;28;20072;-68
2022/12/08 10:12:21;;;;;;;11.90;7.45;;;;;;;0.64;100.00;98131.56;5017607;28;20058;-64
2022/12/08 10:14:54;;;;;;;13.95;8.60;;;;;;;0.77;100.00;98181.78;5017904;28;20049;-65
2022/12/08 10:17:25;;;;;;;16.33;7.93;;;;;;;0.63;100.00;98190.09;5017861;28;20056;-60
2022/12/08 10:19:58;;;;;;;18.10;8.80;;;;;;;0.89;100.00;98208.06;5017756;28;20112;-66
2022/12/08 10:22:30;;;;;;;16.73;8.18;;;;;;;0.85;100.00;98174.78;5017880;28;20050;-59
2022/12/08 10:25:04;;;;;;;13.15;7.85;;;;;;;0.94;100.00;98210.59;5017436;28;20064;-68
2022/12/08 10:27:34;;;;;;;14.57;8.98;;;;;;;1.39;100.00;98167.63;5017680;28;20061;-65
2022/12/08 10:30:00;;;;;;;18.40;9.35;;;;;;;1.15;100.00;98132.38;5017030;28;20115;-62
2022/12/08 10:32:34;;;;;;;18.48;10.18;;;;;;;1.30;100.00;98137.19;5017792;28;20054;-68
2022/12/08 10:35:04;;;;;;;18.90;9.27;;;;;;;0.82;100.00;98145.72;5017157;28;20092;-63
2022/12/08 10:37:30;;;;;;;18.80;9.50;;;;;;;0.85;100.00;98202.53;5017128;28;20438;-64
2022/12/08 10:40:05;;;;;;;14.85;9.82;;;;;;;0.76;100.00;98231.44;5017454;28;20058;-62
2022/12/08 10:42:38;;;;;;;20.08;10.07;;;;;;;1.38;100.00;98257.84;5017165;28;20057;-66
2022/12/08 10:45:22;;;;;;;24.58;9.27;;;;;;;1.32;100.00;98244.88;5017531;28;20081;-65
2022/12/08 10:47:58;;;;;;;15.83;10.63;;;;;;;1.27;100.00;98239.66;5017477;28;20058;-62
2022/12/08 10:50:30;;;;;;;20.25;10.15;;;;;;;1.32;100.00;98267.25;5016821;28;20631;-64
2022/12/08 10:52:58;;;;;;;23.73;10.93;;;;;;;1.09;100.00;98296.41;5016892;28;20057;-66
2022/12/08 10:55:28;;;;;;;22.55;10.70;;;;;;;1.25;100.00;98328.28;5016933;28;20054;-66
2022/12/08 10:57:54;;;;;;;16.77;8.77;;;;;;;1.09;100.00;98357.72;5017175;28;20054;-66
2022/12/08 11:00:27;;;;;;;22.75;10.50;;;;;;;1.26;100.00;98363.06;5016987;28;20104;-60
2022/12/08 11:02:59;;;;;;;22.02;10.90;;;;;;;1.36;100.00;98353.81;5017097;28;20203;-65
2022/12/08 11:05:28;;;;;;;21.40;11.18;;;;;;;1.58;100.00;98382.50;5016950;28;20385;-65
2022/12/08 11:07:55;;;;;;;20.10;10.40;;;;;;;1.44;100.00;98371.91;5016931;28;20049;-65
2022/12/08 11:10:31;;;;;;;20.00;10.40;;;;;;;1.37;100.00;98341.91;5016885;28;20445;-61
2022/12/08 11:13:00;;;;;;;19.48;10.02;;;;;;;1.36;100.00;98354.59;5017275;28;20455;-66
2022/12/08 11:15:35;;;;;;;20.63;9.98;;;;;;;0.70;100.00;98343.38;5016633;28;20050;-65
2022/12/08 11:18:08;;;;;;;19.27;9.88;;;;;;;1.00;100.00;98438.72;5016655;28;20057;-67
2022/12/08 11:20:39;;;;;;;21.85;9.95;;;;;;;1.73;100.00;98476.50;5016529;28;20079;-65
2022/12/08 11:23:18;;;;;;;23.52;10.38;;;;;;;1.18;100.00;98458.38;5016121;28;20060;-67
2022/12/08 11:25:47;;;;;;;20.02;10.82;;;;;;;1.14;100.00;98484.44;5016937;28;20080;-62